JSX1042 KMTH-KISM
Flight info
| Callsign | JSX1042 |
|---|---|
| Flight time | 0h 46m |
| Altitude | 34000 |
| Route | FERAL JOKRS4 |
| Aircraft | E145/M-SABDFGRW/S |
Departure
| Time | 2026-05-04 07:09 |
|---|---|
| Airport | Florida Keys Marathon International Airport (KMTH) |
Arrival
| Time | 2026-05-04 07:55 |
|---|---|
| Airport | Kissimmee Gateway Airport (KISM) |
| Time | Latitude | Longitude | Altitude | Speed | Heading |
|---|---|---|---|---|---|
| 2026-05-04 07:08 | 24.95354 | -81.11384 | 11222 ft | 299 kts | 334° |
| 2026-05-04 07:09 | 24.97389 | -81.12228 | 11788 ft | 314 kts | 334° |
| 2026-05-04 07:09 | 24.99491 | -81.13100 | 12354 ft | 327 kts | 334° |
| 2026-05-04 07:09 | 25.01705 | -81.14016 | 13154 ft | 332 kts | 334° |
| 2026-05-04 07:09 | 25.03891 | -81.14920 | 14020 ft | 332 kts | 333° |
| 2026-05-04 07:10 | 25.06063 | -81.15820 | 14783 ft | 334 kts | 333° |
| 2026-05-04 07:10 | 25.08272 | -81.16734 | 15511 ft | 337 kts | 333° |
| 2026-05-04 07:12 | 25.23743 | -81.23152 | 20655 ft | 327 kts | 332° |
| 2026-05-04 07:12 | 25.25876 | -81.24039 | 21325 ft | 325 kts | 332° |
| 2026-05-04 07:12 | 25.27990 | -81.24917 | 21944 ft | 324 kts | 331° |
| 2026-05-04 07:12 | 25.30000 | -81.25754 | 22613 ft | 320 kts | 332° |
| 2026-05-04 07:13 | 25.32102 | -81.26627 | 23313 ft | 315 kts | 331° |
| 2026-05-04 07:13 | 25.34167 | -81.27486 | 23903 ft | 314 kts | 330° |
| 2026-05-04 07:13 | 25.36232 | -81.28348 | 24406 ft | 315 kts | 330° |
| 2026-05-04 07:14 | 25.44540 | -81.31814 | 26487 ft | 313 kts | 329° |
| 2026-05-04 07:14 | 25.46581 | -81.32664 | 26983 ft | 312 kts | 329° |
| 2026-05-04 07:15 | 25.48633 | -81.33523 | 27433 ft | 312 kts | 329° |
| 2026-05-04 07:15 | 25.50678 | -81.34377 | 27910 ft | 311 kts | 328° |
| 2026-05-04 07:15 | 25.52763 | -81.35250 | 28320 ft | 312 kts | 328° |
| 2026-05-04 07:15 | 25.54783 | -81.36094 | 28850 ft | 308 kts | 328° |
| 2026-05-04 07:16 | 25.56817 | -81.36945 | 29405 ft | 304 kts | 327° |
| 2026-05-04 07:16 | 25.58853 | -81.37801 | 29632 ft | 309 kts | 328° |
| 2026-05-04 07:16 | 25.60887 | -81.38652 | 30045 ft | 309 kts | 327° |
| 2026-05-04 07:16 | 25.62918 | -81.39504 | 30405 ft | 309 kts | 328° |
| 2026-05-04 07:17 | 25.64848 | -81.40314 | 30763 ft | 308 kts | 327° |
| 2026-05-04 07:17 | 25.66877 | -81.41166 | 31040 ft | 310 kts | 327° |
| 2026-05-04 07:17 | 25.68942 | -81.42033 | 31482 ft | 307 kts | 328° |
| 2026-05-04 07:17 | 25.70952 | -81.42878 | 31786 ft | 308 kts | 327° |
| 2026-05-04 07:18 | 25.73003 | -81.43742 | 32027 ft | 311 kts | 327° |
| 2026-05-04 07:18 | 25.75014 | -81.44587 | 32483 ft | 307 kts | 327° |
| 2026-05-04 07:18 | 25.77045 | -81.45442 | 32785 ft | 309 kts | 327° |
| 2026-05-04 07:18 | 25.79077 | -81.46297 | 33156 ft | 307 kts | 327° |
| 2026-05-04 07:19 | 25.81062 | -81.47134 | 33470 ft | 308 kts | 327° |
| 2026-05-04 07:19 | 25.83057 | -81.47974 | 33773 ft | 309 kts | 326° |
| 2026-05-04 07:19 | 25.85115 | -81.48844 | 33974 ft | 313 kts | 326° |
| 2026-05-04 07:19 | 25.87218 | -81.49738 | 33995 ft | 323 kts | 326° |
| 2026-05-04 07:20 | 25.89359 | -81.50646 | 33995 ft | 334 kts | 326° |
| 2026-05-04 07:20 | 25.91555 | -81.51578 | 33995 ft | 341 kts | 327° |
| 2026-05-04 07:20 | 25.96154 | -81.53530 | 34002 ft | 358 kts | 327° |
| 2026-05-04 07:22 | 26.13654 | -81.60967 | 33997 ft | 404 kts | 328° |
| 2026-05-04 07:22 | 26.16332 | -81.62107 | 33995 ft | 409 kts | 328° |
| 2026-05-04 07:23 | 26.21776 | -81.64426 | 33991 ft | 419 kts | 329° |
| 2026-05-04 07:23 | 26.27317 | -81.66791 | 34009 ft | 428 kts | 329° |
| 2026-05-04 07:24 | 26.32971 | -81.69207 | 34010 ft | 437 kts | 328° |
| 2026-05-04 07:24 | 26.38685 | -81.71653 | 34010 ft | 432 kts | 329° |
| 2026-05-04 07:26 | 26.61659 | -81.78364 | 34025 ft | 458 kts | 358° |
| 2026-05-04 07:27 | 26.67920 | -81.76449 | 34020 ft | 462 kts | 3° |
| 2026-05-04 07:27 | 26.71030 | -81.75858 | 34028 ft | 447 kts | 354° |
| 2026-05-04 07:27 | 26.74080 | -81.75782 | 34027 ft | 437 kts | 348° |
| 2026-05-04 07:28 | 26.80235 | -81.75600 | 34021 ft | 441 kts | 351° |
| 2026-05-04 07:28 | 26.86379 | -81.75294 | 34025 ft | 440 kts | 351° |
| 2026-05-04 07:29 | 26.92483 | -81.74979 | 34030 ft | 438 kts | 351° |
| 2026-05-04 07:29 | 26.98622 | -81.74661 | 34031 ft | 438 kts | 351° |
| 2026-05-04 07:30 | 27.04759 | -81.74315 | 34028 ft | 438 kts | 352° |
| 2026-05-04 07:30 | 27.10824 | -81.73921 | 34026 ft | 437 kts | 352° |
| 2026-05-04 07:31 | 27.16826 | -81.73534 | 34026 ft | 438 kts | 351° |
| 2026-05-04 07:33 | 27.37173 | -81.76173 | 34022 ft | 412 kts | 331° |
| 2026-05-04 07:33 | 27.39911 | -81.77097 | 34021 ft | 412 kts | 332° |
| 2026-05-04 07:33 | 27.45433 | -81.78953 | 34019 ft | 413 kts | 332° |
| 2026-05-04 07:34 | 27.50970 | -81.80817 | 34022 ft | 414 kts | 332° |
| 2026-05-04 07:34 | 27.56528 | -81.82689 | 34023 ft | 414 kts | 332° |
| 2026-05-04 07:35 | 27.62116 | -81.84454 | 34022 ft | 423 kts | 338° |
| 2026-05-04 07:35 | 27.65102 | -81.84808 | 34033 ft | 437 kts | 347° |
| 2026-05-04 07:35 | 27.68193 | -81.84657 | 34022 ft | 450 kts | 355° |
| 2026-05-04 07:36 | 27.71343 | -81.83969 | 34026 ft | 464 kts | 4° |
| 2026-05-04 07:36 | 27.74421 | -81.82738 | 34028 ft | 477 kts | 13° |
| 2026-05-04 07:38 | 27.95538 | -81.73973 | 34023 ft | 403 kts | 356° |
| 2026-05-04 07:38 | 27.98257 | -81.73415 | 33498 ft | 397 kts | 357° |
| 2026-05-04 07:38 | 28.00962 | -81.72817 | 33009 ft | 394 kts | 1° |
| 2026-05-04 07:38 | 28.03569 | -81.71812 | 32561 ft | 401 kts | 12° |
| 2026-05-04 07:39 | 28.06056 | -81.70332 | 32123 ft | 407 kts | 22° |
| 2026-05-04 07:39 | 28.08310 | -81.68381 | 31679 ft | 412 kts | 33° |
| 2026-05-04 07:39 | 28.10545 | -81.66368 | 31226 ft | 397 kts | 23° |
| 2026-05-04 07:39 | 28.12924 | -81.64892 | 30781 ft | 377 kts | 11° |
| 2026-05-04 07:40 | 28.15349 | -81.63975 | 30321 ft | 359 kts | 1° |
| 2026-05-04 07:40 | 28.17785 | -81.63349 | 29870 ft | 353 kts | 1° |
| 2026-05-04 07:40 | 28.20169 | -81.62756 | 29395 ft | 349 kts | 1° |
| 2026-05-04 07:40 | 28.22527 | -81.62176 | 28891 ft | 345 kts | 1° |
| 2026-05-04 07:41 | 28.24835 | -81.61605 | 28388 ft | 342 kts | 1° |
| 2026-05-04 07:41 | 28.27167 | -81.61043 | 27889 ft | 339 kts | 1° |
| 2026-05-04 07:41 | 28.29479 | -81.60483 | 27384 ft | 336 kts | 1° |
| 2026-05-04 07:41 | 28.31747 | -81.59943 | 26873 ft | 332 kts | 359° |
| 2026-05-04 07:42 | 28.33975 | -81.59729 | 26379 ft | 316 kts | 347° |
| 2026-05-04 07:42 | 28.36120 | -81.60053 | 25881 ft | 299 kts | 334° |
| 2026-05-04 07:42 | 28.38014 | -81.60870 | 25392 ft | 284 kts | 321° |
| 2026-05-04 07:42 | 28.39597 | -81.62117 | 24904 ft | 271 kts | 308° |
| 2026-05-04 07:43 | 28.40764 | -81.63718 | 24418 ft | 258 kts | 295° |
| 2026-05-04 07:43 | 28.41653 | -81.65498 | 23931 ft | 257 kts | 293° |
| 2026-05-04 07:43 | 28.42867 | -81.67027 | 23446 ft | 270 kts | 318° |
| 2026-05-04 07:43 | 28.44540 | -81.68063 | 22979 ft | 275 kts | 323° |
| 2026-05-04 07:44 | 28.46240 | -81.69048 | 22495 ft | 274 kts | 323° |
| 2026-05-04 07:44 | 28.47954 | -81.70058 | 21891 ft | 279 kts | 323° |
| 2026-05-04 07:44 | 28.49686 | -81.71092 | 21179 ft | 286 kts | 323° |
| 2026-05-04 07:44 | 28.51478 | -81.72187 | 20456 ft | 292 kts | 323° |
| 2026-05-04 07:45 | 28.53269 | -81.73303 | 19756 ft | 296 kts | 323° |
| 2026-05-04 07:45 | 28.55081 | -81.74455 | 19038 ft | 300 kts | 323° |
| 2026-05-04 07:45 | 28.56875 | -81.75603 | 18346 ft | 303 kts | 323° |
| 2026-05-04 07:45 | 28.58709 | -81.76814 | 17628 ft | 305 kts | 322° |
| 2026-05-04 07:46 | 28.60545 | -81.78046 | 16903 ft | 306 kts | 323° |
| 2026-05-04 07:46 | 28.62363 | -81.79280 | 16194 ft | 308 kts | 323° |
| 2026-05-04 07:46 | 28.64391 | -81.80170 | 15461 ft | 321 kts | 346° |
| 2026-05-04 07:46 | 28.66641 | -81.80006 | 14761 ft | 334 kts | 10° |
| 2026-05-04 07:47 | 28.68740 | -81.78732 | 14029 ft | 346 kts | 36° |
| 2026-05-04 07:47 | 28.70242 | -81.76555 | 13291 ft | 354 kts | 61° |
| 2026-05-04 07:47 | 28.70872 | -81.73879 | 12573 ft | 356 kts | 86° |
| 2026-05-04 07:49 | 28.60898 | -81.60685 | 8312 ft | 314 kts | 149° |
| 2026-05-04 07:49 | 28.59057 | -81.59359 | 7768 ft | 310 kts | 149° |
| 2026-05-04 07:49 | 28.57217 | -81.58049 | 7207 ft | 306 kts | 150° |
| 2026-05-04 07:50 | 28.55426 | -81.56782 | 6657 ft | 302 kts | 149° |
| 2026-05-04 07:50 | 28.53613 | -81.55532 | 6106 ft | 299 kts | 149° |
| 2026-05-04 07:50 | 28.51825 | -81.54314 | 5559 ft | 296 kts | 149° |
| 2026-05-04 07:50 | 28.50032 | -81.53129 | 5010 ft | 293 kts | 149° |
| 2026-05-04 07:51 | 28.48274 | -81.52016 | 4480 ft | 290 kts | 150° |
| 2026-05-04 07:51 | 28.46479 | -81.50893 | 4153 ft | 277 kts | 149° |
| 2026-05-04 07:51 | 28.44822 | -81.49903 | 4193 ft | 255 kts | 154° |
| 2026-05-04 07:51 | 28.43168 | -81.49540 | 4151 ft | 225 kts | 178° |
| 2026-05-04 07:52 | 28.41747 | -81.49505 | 3834 ft | 187 kts | 174° |
| 2026-05-04 07:52 | 28.40467 | -81.49396 | 3356 ft | 186 kts | 168° |
| 2026-05-04 07:52 | 28.39189 | -81.49115 | 3128 ft | 187 kts | 163° |
| 2026-05-04 07:52 | 28.37892 | -81.48884 | 2351 ft | 186 kts | 168° |
| 2026-05-04 07:53 | 28.36647 | -81.48714 | 1718 ft | 179 kts | 165° |
| 2026-05-04 07:54 | 28.30339 | -81.44684 | 307 ft | 138 kts | 143° |
| 2026-05-04 07:55 | 28.29534 | -81.44102 | 104 ft | 133 kts | 146° |
| 2026-05-04 07:55 | 28.28814 | -81.43599 | 82 ft | 96 kts | 147° |
| 2026-05-04 07:55 | 28.28514 | -81.43389 | 80 ft | 22 kts | 148° |
| 2026-05-04 07:55 | 28.28389 | -81.43296 | 79 ft | 17 kts | 125° |
| 2026-05-04 07:56 | 28.28462 | -81.43232 | 79 ft | 17 kts | 348° |
| 2026-05-04 07:56 | 28.28574 | -81.43303 | 79 ft | 19 kts | 328° |
| 2026-05-04 07:56 | 28.28697 | -81.43387 | 80 ft | 20 kts | 327° |
| 2026-05-04 07:56 | 28.28825 | -81.43478 | 82 ft | 22 kts | 328° |
| 2026-05-04 07:57 | 28.28961 | -81.43573 | 82 ft | 23 kts | 329° |
| 2026-05-04 07:57 | 28.29107 | -81.43677 | 82 ft | 25 kts | 328° |
| 2026-05-04 07:57 | 28.29171 | -81.43756 | 82 ft | 12 kts | 246° |
| 2026-05-04 07:57 | 28.29123 | -81.43848 | 82 ft | 14 kts | 237° |
| 2026-05-04 07:58 | 28.29108 | -81.43954 | 82 ft | 15 kts | 326° |
| 2026-05-04 07:58 | 28.29153 | -81.44038 | 82 ft | 11 kts | 244° |
| 2026-05-04 07:58 | 28.29152 | -81.44092 | 82 ft | 2 kts | 317° |
| 2026-05-04 07:58 | 28.29212 | -81.44129 | 82 ft | 10 kts | 335° |
| 2026-05-04 07:59 | 28.29250 | -81.44111 | 82 ft | 0 kts | 54° |